Time;durP1;ratioP1;P1;durP2;ratioP2;P2;SDS_P1;SDS_P2;PMS_P1;PMS_P2;Temp;Humidity;BMP_temperature;BMP_pressure;BME280_temperature;BME280_humidity;BME280_pressure;Samples;Min_cycle;Max_cycle;Signal;HPM_P1;HPM_P2
2023/05/22 00:01:59;;;;;;;6.30;5.47;;;;;;;;;;5055316;28;20204;-79
2023/05/22 00:04:28;;;;;;;5.60;5.10;;;;;;;;;;5054381;28;20587;-80
2023/05/22 00:06:56;;;;;;;5.63;5.22;;;;;;;;;;5055204;28;20247;-79
2023/05/22 00:09:25;;;;;;;6.38;5.88;;;;;;;;;;5054937;28;20590;-80
2023/05/22 00:11:53;;;;;;;5.95;5.35;;;;;;;;;;5054610;28;20236;-79
2023/05/22 00:14:20;;;;;;;6.38;5.78;;;;;;;;;;5054773;28;20206;-80
2023/05/22 00:16:49;;;;;;;6.15;5.43;;;;;;;;;;5053870;28;20205;-79
2023/05/22 00:19:21;;;;;;;5.55;5.07;;;;;;;;;;5054415;28;20241;-80
2023/05/22 00:21:50;;;;;;;5.50;5.05;;;;;;;;;;5054482;28;20212;-80
2023/05/22 00:24:17;;;;;;;5.78;5.30;;;;;;;;;;5053605;28;20202;-80
2023/05/22 00:26:45;;;;;;;5.72;5.22;;;;;;;;;;5053919;28;20239;-80
2023/05/22 00:29:12;;;;;;;6.13;5.15;;;;;;;;;;5054043;28;20205;-79
2023/05/22 00:31:40;;;;;;;5.80;5.30;;;;;;;;;;5054464;28;20212;-80
2023/05/22 00:34:07;;;;;;;5.78;5.28;;;;;;;;;;5072428;28;20197;-80
2023/05/22 00:36:36;;;;;;;7.68;6.97;;;;;;;;;;5073968;28;20576;-79
2023/05/22 00:39:03;;;;;;;6.00;5.50;;;;;;;;;;5073485;28;20225;-80
2023/05/22 00:41:32;;;;;;;7.07;6.30;;;;;;;;;;5073925;28;20299;-80
2023/05/22 00:44:00;;;;;;;6.25;5.72;;;;;;;;;;5060602;28;20288;-79
2023/05/22 00:46:27;;;;;;;6.22;5.53;;;;;;;;;;5053734;28;20276;-79
2023/05/22 00:48:55;;;;;;;5.20;4.80;;;;;;;;;;5053701;28;20221;-79
2023/05/22 00:51:23;;;;;;;6.88;6.28;;;;;;;;;;5053875;28;20209;-80
2023/05/22 00:53:52;;;;;;;6.35;5.80;;;;;;;;;;5054214;28;20204;-79
2023/05/22 00:56:20;;;;;;;6.40;5.80;;;;;;;;;;5054031;28;20296;-79
2023/05/22 00:58:48;;;;;;;6.55;5.95;;;;;;;;;;5053496;28;20316;-80
2023/05/22 01:01:16;;;;;;;6.35;5.80;;;;;;;;;;5053507;28;20257;-80
2023/05/22 01:03:44;;;;;;;7.05;6.45;;;;;;;;;;5053405;28;20697;-81
2023/05/22 01:06:12;;;;;;;6.25;5.70;;;;;;;;;;5053793;28;20288;-79
2023/05/22 01:08:40;;;;;;;6.80;6.22;;;;;;;;;;5053234;28;20220;-80
2023/05/22 01:11:15;;;;;;;6.60;6.00;;;;;;;;;;5053399;28;20202;-79
2023/05/22 01:13:50;;;;;;;6.85;6.25;;;;;;;;;;5053519;28;20669;-80
2023/05/22 01:16:24;;;;;;;6.60;6.00;;;;;;;;;;5053253;28;20197;-80
2023/05/22 01:19:01;;;;;;;6.25;5.70;;;;;;;;;;5053199;28;20232;-79
2023/05/22 01:21:37;;;;;;;6.20;5.70;;;;;;;;;;5053525;28;20209;-80
2023/05/22 01:24:52;;;;;;;6.22;5.72;;;;;;;;;;5053482;28;20695;-79
2023/05/22 01:28:01;;;;;;;5.68;5.18;;;;;;;;;;5050820;28;20229;-79
2023/05/22 01:30:49;;;;;;;5.68;5.18;;;;;;;;;;5052885;28;20673;-80
2023/05/22 01:33:17;;;;;;;5.28;4.80;;;;;;;;;;5053289;28;20202;-79
2023/05/22 01:35:46;;;;;;;5.00;4.50;;;;;;;;;;5053238;28;20255;-79
2023/05/22 01:38:14;;;;;;;7.05;6.43;;;;;;;;;;5052203;28;20233;-79
2023/05/22 01:40:42;;;;;;;5.72;5.18;;;;;;;;;;5052629;28;20307;-78
2023/05/22 01:43:09;;;;;;;5.90;5.30;;;;;;;;;;5051911;28;20202;-78
2023/05/22 01:45:37;;;;;;;5.53;5.03;;;;;;;;;;5052214;28;20226;-79
2023/05/22 01:48:06;;;;;;;5.30;4.80;;;;;;;;;;5052101;28;20224;-78
2023/05/22 01:50:34;;;;;;;5.35;4.85;;;;;;;;;;5054827;28;20201;-78
2023/05/22 01:53:11;;;;;;;6.22;5.72;;;;;;;;;;5054762;28;20296;-78
2023/05/22 01:55:44;;;;;;;6.75;6.18;;;;;;;;;;5055353;28;20204;-78
2023/05/22 01:58:21;;;;;;;6.05;5.50;;;;;;;;;;5054040;28;20623;-79
2023/05/22 02:00:50;;;;;;;6.18;5.68;;;;;;;;;;5055210;28;20251;-78
2023/05/22 02:03:22;;;;;;;6.10;5.60;;;;;;;;;;5053778;28;20198;-79
2023/05/22 02:05:54;;;;;;;6.13;5.53;;;;;;;;;;5052334;28;20205;-79
2023/05/22 02:08:22;;;;;;;5.97;5.38;;;;;;;;;;5052200;28;20214;-79
2023/05/22 02:10:50;;;;;;;5.70;4.90;;;;;;;;;;5051018;28;20241;-78
2023/05/22 02:13:17;;;;;;;5.60;5.10;;;;;;;;;;5051964;28;20669;-80
2023/05/22 02:15:46;;;;;;;5.75;5.22;;;;;;;;;;5063431;28;20216;-79
2023/05/22 02:18:13;;;;;;;5.65;5.07;;;;;;;;;;5071614;28;20225;-79
2023/05/22 02:20:42;;;;;;;4.95;4.55;;;;;;;;;;5071923;28;20204;-79
2023/05/22 02:23:10;;;;;;;6.10;5.07;;;;;;;;;;5072013;28;20197;-79
2023/05/22 02:25:37;;;;;;;5.88;5.38;;;;;;;;;;5071812;28;20578;-79
2023/05/22 02:28:05;;;;;;;5.20;4.70;;;;;;;;;;5071131;28;20228;-79
2023/05/22 02:30:32;;;;;;;4.70;4.30;;;;;;;;;;5071882;28;20211;-79
2023/05/22 02:33:00;;;;;;;5.10;4.63;;;;;;;;;;5072083;28;20582;-80
2023/05/22 02:35:27;;;;;;;6.13;5.20;;;;;;;;;;5072616;28;20287;-79
2023/05/22 02:37:56;;;;;;;5.47;4.97;;;;;;;;;;5071727;28;20224;-79
2023/05/22 02:40:23;;;;;;;5.40;4.93;;;;;;;;;;5071794;28;20201;-78
2023/05/22 02:42:51;;;;;;;5.43;4.97;;;;;;;;;;5068138;28;20205;-79
2023/05/22 02:45:18;;;;;;;5.05;4.57;;;;;;;;;;5052044;28;20193;-78
2023/05/22 02:47:45;;;;;;;6.32;5.82;;;;;;;;;;5051493;28;20236;-78
2023/05/22 02:50:13;;;;;;;4.85;4.45;;;;;;;;;;5051818;28;20202;-79
2023/05/22 02:52:41;;;;;;;4.88;4.47;;;;;;;;;;5051824;28;20209;-79
2023/05/22 02:55:10;;;;;;;5.38;4.82;;;;;;;;;;5051733;28;20229;-79
2023/05/22 02:57:38;;;;;;;7.45;6.75;;;;;;;;;;5051691;28;20226;-79
2023/05/22 03:00:10;;;;;;;5.68;5.18;;;;;;;;;;5051592;28;20226;-79
2023/05/22 03:02:37;;;;;;;5.63;5.15;;;;;;;;;;5051749;28;20202;-79
2023/05/22 03:05:06;;;;;;;6.05;5.55;;;;;;;;;;5051763;28;20200;-80
2023/05/22 03:07:34;;;;;;;5.25;4.75;;;;;;;;;;5051480;28;20763;-78
2023/05/22 03:10:01;;;;;;;5.82;5.32;;;;;;;;;;5050846;28;20193;-79
2023/05/22 03:12:30;;;;;;;5.53;5.03;;;;;;;;;;5051060;28;20209;-78
2023/05/22 03:14:57;;;;;;;5.65;5.15;;;;;;;;;;5051549;28;20201;-79
2023/05/22 03:17:25;;;;;;;4.45;4.05;;;;;;;;;;5051133;28;20231;-79
2023/05/22 03:19:52;;;;;;;5.38;4.90;;;;;;;;;;5051615;28;20248;-79
2023/05/22 03:22:20;;;;;;;4.40;4.00;;;;;;;;;;5051274;28;20204;-79
2023/05/22 03:24:47;;;;;;;6.22;5.68;;;;;;;;;;5051630;28;20234;-80
2023/05/22 03:27:16;;;;;;;5.68;5.18;;;;;;;;;;5051204;28;20239;-78
2023/05/22 03:29:45;;;;;;;6.10;5.50;;;;;;;;;;5051457;28;20204;-79
2023/05/22 03:32:13;;;;;;;5.78;5.28;;;;;;;;;;5051627;28;20684;-78
2023/05/22 03:34:40;;;;;;;5.45;5.05;;;;;;;;;;5051397;28;20583;-79
2023/05/22 03:37:07;;;;;;;6.88;6.28;;;;;;;;;;5051669;28;20272;-79
2023/05/22 03:39:35;;;;;;;5.57;4.82;;;;;;;;;;5051523;28;20248;-78
2023/05/22 03:42:03;;;;;;;5.05;4.55;;;;;;;;;;5051966;28;20202;-79
2023/05/22 03:44:30;;;;;;;6.32;5.82;;;;;;;;;;5051129;28;20579;-79
2023/05/22 03:46:59;;;;;;;5.55;5.07;;;;;;;;;;5051569;28;20304;-79
2023/05/22 03:49:32;;;;;;;5.70;5.20;;;;;;;;;;5052169;28;20283;-79
2023/05/22 03:51:59;;;;;;;6.15;5.68;;;;;;;;;;5053935;28;20197;-78
2023/05/22 03:54:27;;;;;;;6.57;4.65;;;;;;;;;;5051452;28;20682;-79
2023/05/22 03:56:54;;;;;;;5.57;5.10;;;;;;;;;;5050965;28;20231;-80
2023/05/22 03:59:22;;;;;;;5.95;5.45;;;;;;;;;;5053238;28;20222;-79
2023/05/22 04:01:49;;;;;;;6.07;5.50;;;;;;;;;;5054254;28;20205;-79
2023/05/22 04:04:18;;;;;;;5.57;5.07;;;;;;;;;;5054927;28;20201;-78
2023/05/22 04:06:45;;;;;;;5.47;5.07;;;;;;;;;;5054877;28;20209;-79
2023/05/22 04:09:14;;;;;;;5.05;4.65;;;;;;;;;;5054160;28;20194;-79
2023/05/22 04:11:42;;;;;;;5.22;4.82;;;;;;;;;;5054369;28;20205;-78
2023/05/22 04:14:10;;;;;;;5.50;5.10;;;;;;;;;;5054529;28;20205;-80
2023/05/22 04:16:37;;;;;;;5.97;5.00;;;;;;;;;;5054545;28;20201;-80
2023/05/22 04:19:05;;;;;;;5.63;5.15;;;;;;;;;;5054281;28;20305;-80
2023/05/22 04:21:34;;;;;;;5.47;4.97;;;;;;;;;;5054654;28;20201;-79
2023/05/22 04:24:05;;;;;;;5.57;5.10;;;;;;;;;;5054503;28;20194;-80
2023/05/22 04:26:33;;;;;;;4.95;4.35;;;;;;;;;;5054272;28;20296;-80
2023/05/22 04:29:01;;;;;;;5.18;4.70;;;;;;;;;;5054299;28;20212;-80
2023/05/22 04:31:28;;;;;;;5.30;4.80;;;;;;;;;;5054332;28;20201;-80
2023/05/22 04:33:58;;;;;;;5.90;5.38;;;;;;;;;;5054206;28;20212;-79
2023/05/22 04:36:26;;;;;;;5.00;4.60;;;;;;;;;;5054339;28;20221;-80
2023/05/22 04:38:55;;;;;;;5.40;4.90;;;;;;;;;;5053830;28;20218;-80
2023/05/22 04:41:25;;;;;;;5.05;4.65;;;;;;;;;;5053897;28;20229;-80
2023/05/22 04:43:53;;;;;;;5.68;5.15;;;;;;;;;;5054174;28;20205;-80
2023/05/22 04:46:21;;;;;;;5.68;5.18;;;;;;;;;;5053779;28;20210;-78
2023/05/22 04:48:49;;;;;;;5.97;5.47;;;;;;;;;;5053814;28;20251;-79
2023/05/22 04:51:17;;;;;;;6.20;5.22;;;;;;;;;;5053846;28;20202;-79
2023/05/22 04:53:45;;;;;;;5.30;4.90;;;;;;;;;;5054077;28;20233;-79
2023/05/22 04:56:13;;;;;;;5.60;5.10;;;;;;;;;;5053839;28;20617;-79
2023/05/22 04:58:41;;;;;;;4.25;3.85;;;;;;;;;;5056401;28;20224;-79
2023/05/22 05:01:09;;;;;;;4.80;4.40;;;;;;;;;;5053231;28;20298;-80
2023/05/22 05:03:38;;;;;;;4.40;4.03;;;;;;;;;;5053832;28;20208;-79
2023/05/22 05:06:07;;;;;;;5.22;4.72;;;;;;;;;;5053528;28;20296;-80
2023/05/22 05:08:34;;;;;;;4.78;4.38;;;;;;;;;;5052889;28;20218;-80
2023/05/22 05:11:02;;;;;;;4.10;3.80;;;;;;;;;;5053523;28;20205;-80
2023/05/22 05:13:31;;;;;;;4.55;4.15;;;;;;;;;;5053109;28;20212;-79
2023/05/22 05:16:00;;;;;;;5.20;4.80;;;;;;;;;;5053343;28;20205;-79
2023/05/22 05:18:27;;;;;;;4.90;4.47;;;;;;;;;;5053332;28;20225;-79
2023/05/22 05:20:55;;;;;;;5.55;5.00;;;;;;;;;;5053328;28;20241;-79
2023/05/22 05:23:22;;;;;;;7.30;6.50;;;;;;;;;;5054322;28;20592;-80
2023/05/22 05:25:49;;;;;;;6.70;5.28;;;;;;;;;;5055144;28;20207;-79
2023/05/22 05:28:17;;;;;;;5.90;5.40;;;;;;;;;;5054082;28;20316;-80
2023/05/22 05:30:46;;;;;;;5.00;4.60;;;;;;;;;;5055975;28;20576;-79
2023/05/22 05:33:14;;;;;;;4.97;4.47;;;;;;;;;;5054338;28;20208;-79
2023/05/22 05:35:41;;;;;;;6.15;5.55;;;;;;;;;;5054666;28;20205;-79
2023/05/22 05:38:09;;;;;;;5.70;5.20;;;;;;;;;;5055126;28;20217;-79
2023/05/22 05:40:36;;;;;;;5.43;4.95;;;;;;;;;;5054026;28;20309;-79
2023/05/22 05:43:04;;;;;;;6.28;5.45;;;;;;;;;;5054527;28;20580;-79
2023/05/22 05:45:31;;;;;;;5.88;5.38;;;;;;;;;;5054455;28;20210;-79
2023/05/22 05:48:00;;;;;;;6.20;5.65;;;;;;;;;;5047041;28;20221;-79
2023/05/22 05:50:28;;;;;;;6.47;5.75;;;;;;;;;;5041609;28;20190;-79
2023/05/22 05:52:55;;;;;;;5.47;4.97;;;;;;;;;;5034343;28;20297;-79
2023/05/22 05:55:22;;;;;;;5.50;5.10;;;;;;;;;;5042590;28;20579;-79
2023/05/22 05:57:50;;;;;;;5.10;4.70;;;;;;;;;;5046617;28;20324;-79
2023/05/22 06:00:19;;;;;;;4.68;4.15;;;;;;;;;;5053881;28;20217;-79
2023/05/22 06:02:47;;;;;;;4.75;4.45;;;;;;;;;;5053527;28;20212;-79
2023/05/22 06:05:17;;;;;;;4.28;3.88;;;;;;;;;;5053779;28;20202;-79
2023/05/22 06:07:47;;;;;;;5.20;4.72;;;;;;;;;;5053251;28;20233;-80
2023/05/22 06:10:14;;;;;;;3.92;3.53;;;;;;;;;;5054495;28;20202;-79
2023/05/22 06:12:42;;;;;;;4.82;4.50;;;;;;;;;;5045255;28;20225;-80
2023/05/22 06:15:11;;;;;;;4.50;4.10;;;;;;;;;;5053224;28;20210;-79
2023/05/22 06:17:39;;;;;;;5.05;4.65;;;;;;;;;;5053461;28;20280;-79
2023/05/22 06:20:08;;;;;;;5.18;4.68;;;;;;;;;;5053272;28;20232;-79
2023/05/22 06:22:37;;;;;;;5.20;4.70;;;;;;;;;;5053006;28;20298;-80
2023/05/22 06:25:06;;;;;;;5.55;5.13;;;;;;;;;;5053811;28;20296;-79
2023/05/22 06:27:33;;;;;;;6.03;5.43;;;;;;;;;;5085299;22;20224;-83
2023/05/22 06:30:01;;;;;;;4.55;4.25;;;;;;;;;;5112871;28;20226;-83
2023/05/22 06:32:29;;;;;;;5.43;4.97;;;;;;;;;;5113764;28;20196;-84
2023/05/22 06:34:56;;;;;;;4.93;4.50;;;;;;;;;;5114515;28;20235;-84
2023/05/22 06:37:24;;;;;;;5.47;4.65;;;;;;;;;;5112858;28;20264;-84
2023/05/22 06:39:52;;;;;;;5.63;5.13;;;;;;;;;;5113315;28;20225;-84
2023/05/22 06:42:20;;;;;;;6.47;5.78;;;;;;;;;;5115224;28;20235;-84
2023/05/22 06:44:48;;;;;;;4.93;4.53;;;;;;;;;;5113179;28;20203;-84
2023/05/22 06:47:15;;;;;;;5.60;5.10;;;;;;;;;;5112524;28;20290;-84
2023/05/22 06:49:42;;;;;;;6.85;6.32;;;;;;;;;;5112818;28;20261;-84
2023/05/22 06:52:11;;;;;;;6.72;5.78;;;;;;;;;;5112558;28;20844;-84
2023/05/22 06:54:41;;;;;;;5.82;5.28;;;;;;;;;;5113064;28;20215;-83
2023/05/22 06:57:10;;;;;;;5.40;5.00;;;;;;;;;;5113224;28;20564;-83
2023/05/22 06:59:37;;;;;;;5.90;5.00;;;;;;;;;;5112407;28;20251;-83
2023/05/22 07:02:05;;;;;;;5.30;4.90;;;;;;;;;;5113119;28;20561;-83
2023/05/22 07:04:33;;;;;;;5.38;4.97;;;;;;;;;;5113417;28;20231;-83
2023/05/22 07:07:01;;;;;;;5.95;5.45;;;;;;;;;;5112920;28;20286;-84
2023/05/22 07:09:28;;;;;;;5.03;4.63;;;;;;;;;;5112331;28;20223;-84
2023/05/22 07:11:56;;;;;;;6.60;6.00;;;;;;;;;;5113252;28;20231;-84
2023/05/22 07:14:25;;;;;;;5.72;5.22;;;;;;;;;;5112697;28;20235;-84
2023/05/22 07:16:52;;;;;;;7.63;6.93;;;;;;;;;;5113792;28;20195;-84
2023/05/22 07:19:20;;;;;;;6.38;5.78;;;;;;;;;;5111538;28;20302;-85
2023/05/22 07:21:47;;;;;;;5.65;5.15;;;;;;;;;;5112302;28;20558;-84
2023/05/22 07:24:15;;;;;;;6.05;5.55;;;;;;;;;;5112220;28;20885;-83
2023/05/22 07:26:45;;;;;;;6.00;5.50;;;;;;;;;;5112495;28;20728;-84
2023/05/22 07:29:13;;;;;;;6.40;5.90;;;;;;;;;;5112442;28;20294;-85
2023/05/22 07:31:42;;;;;;;7.30;6.68;;;;;;;;;;5112875;28;20192;-85
2023/05/22 07:34:09;;;;;;;5.55;5.05;;;;;;;;;;5116964;28;20286;-85
2023/05/22 07:36:37;;;;;;;6.28;5.82;;;;;;;;;;5117287;28;20294;-85
2023/05/22 07:39:05;;;;;;;6.70;6.10;;;;;;;;;;5117255;28;20203;-85
2023/05/22 07:41:33;;;;;;;6.65;6.05;;;;;;;;;;5116605;28;20325;-85
2023/05/22 07:44:00;;;;;;;6.03;5.53;;;;;;;;;;5116699;28;20237;-84
2023/05/22 07:46:28;;;;;;;5.63;5.13;;;;;;;;;;5116638;28;20609;-84
2023/05/22 07:48:56;;;;;;;7.25;6.65;;;;;;;;;;5116286;28;20715;-85
2023/05/22 07:51:24;;;;;;;7.30;6.60;;;;;;;;;;5119833;28;20758;-84
2023/05/22 07:53:52;;;;;;;7.10;6.45;;;;;;;;;;5115778;28;20299;-85
2023/05/22 07:56:19;;;;;;;6.97;6.38;;;;;;;;;;5098598;28;20231;-84
2023/05/22 07:58:47;;;;;;;7.13;6.45;;;;;;;;;;5095514;28;20296;-84
2023/05/22 08:01:15;;;;;;;7.32;6.72;;;;;;;;;;5095906;28;20216;-84
2023/05/22 08:03:43;;;;;;;6.72;6.15;;;;;;;;;;5096263;28;20295;-85
2023/05/22 08:06:14;;;;;;;6.78;6.18;;;;;;;;;;5095912;28;20296;-84
2023/05/22 08:08:41;;;;;;;6.30;5.80;;;;;;;;;;5095639;28;20295;-84
2023/05/22 08:11:09;;;;;;;6.55;6.03;;;;;;;;;;5095788;28;20252;-83
2023/05/22 08:13:37;;;;;;;7.22;6.63;;;;;;;;;;5105408;28;20642;-83
2023/05/22 08:16:05;;;;;;;6.38;5.88;;;;;;;;;;5115378;28;20200;-81
2023/05/22 08:18:32;;;;;;;5.55;5.15;;;;;;;;;;5115697;28;20226;-82
2023/05/22 08:21:00;;;;;;;7.97;7.22;;;;;;;;;;5115236;28;20283;-83
2023/05/22 08:23:29;;;;;;;7.22;6.53;;;;;;;;;;5115808;28;20219;-83
2023/05/22 08:25:57;;;;;;;6.40;5.90;;;;;;;;;;5115344;28;20235;-82
2023/05/22 08:28:25;;;;;;;7.88;7.18;;;;;;;;;;5115741;28;20294;-82
2023/05/22 08:30:53;;;;;;;7.63;6.95;;;;;;;;;;5115055;28;20219;-84
2023/05/22 08:33:20;;;;;;;6.57;6.00;;;;;;;;;;5115600;28;20241;-82
2023/05/22 08:35:48;;;;;;;9.77;8.88;;;;;;;;;;5114964;28;20200;-81
2023/05/22 08:38:16;;;;;;;6.50;6.00;;;;;;;;;;5115372;28;20310;-82
2023/05/22 08:40:49;;;;;;;6.03;5.55;;;;;;;;;;5115587;28;20255;-81
2023/05/22 08:43:16;;;;;;;7.47;6.88;;;;;;;;;;5114916;28;20239;-83
2023/05/22 08:46:01;;;;;;;8.30;7.45;;;;;;;;;;5116374;28;20294;-82
2023/05/22 08:48:31;;;;;;;6.15;5.75;;;;;;;;;;5094596;28;20189;-81
2023/05/22 08:51:03;;;;;;;6.85;6.25;;;;;;;;;;5108216;28;20591;-80
2023/05/22 08:53:37;;;;;;;7.28;6.28;;;;;;;;;;5115216;28;20687;-82
2023/05/22 08:56:08;;;;;;;6.30;5.80;;;;;;;;;;5115011;28;20196;-80
2023/05/22 08:58:37;;;;;;;6.43;5.90;;;;;;;;;;5115182;28;20286;-82
2023/05/22 09:01:06;;;;;;;6.25;5.78;;;;;;;;;;5114489;28;20688;-83
2023/05/22 09:03:34;;;;;;;6.07;5.57;;;;;;;;;;5114772;28;20584;-81
2023/05/22 09:06:02;;;;;;;6.47;5.97;;;;;;;;;;5114914;28;20797;-82
2023/05/22 09:08:29;;;;;;;6.40;5.90;;;;;;;;;;5114197;28;20295;-83
2023/05/22 09:10:57;;;;;;;7.28;6.68;;;;;;;;;;5114656;28;20710;-81
2023/05/22 09:13:28;;;;;;;8.00;7.30;;;;;;;;;;5114075;28;20286;-83
2023/05/22 09:16:00;;;;;;;7.00;6.35;;;;;;;;;;5113965;28;20200;-81
2023/05/22 09:18:29;;;;;;;5.82;5.43;;;;;;;;;;5114247;28;20622;-82
2023/05/22 09:20:58;;;;;;;7.22;6.38;;;;;;;;;;5114219;28;20226;-81
2023/05/22 09:23:28;;;;;;;6.32;5.82;;;;;;;;;;5114173;28;20276;-81
2023/05/22 09:25:56;;;;;;;7.82;7.13;;;;;;;;;;5113535;28;20211;-82
2023/05/22 09:28:26;;;;;;;7.20;6.60;;;;;;;;;;5113728;28;20298;-82
2023/05/22 09:30:55;;;;;;;5.68;5.28;;;;;;;;;;5113928;28;20703;-81
2023/05/22 09:33:23;;;;;;;5.30;4.80;;;;;;;;;;5114145;28;20198;-81
2023/05/22 09:35:53;;;;;;;5.15;4.75;;;;;;;;;;5113841;28;20291;-81
2023/05/22 09:38:23;;;;;;;6.38;5.85;;;;;;;;;;5113905;28;20290;-82
2023/05/22 09:40:54;;;;;;;4.63;4.22;;;;;;;;;;5113763;28;20219;-83
2023/05/22 09:43:25;;;;;;;5.53;5.13;;;;;;;;;;5113952;28;20574;-81
2023/05/22 09:45:57;;;;;;;6.18;5.57;;;;;;;;;;5113991;28;20212;-81
2023/05/22 09:48:25;;;;;;;5.25;4.85;;;;;;;;;;5113688;28;20206;-81
2023/05/22 09:50:54;;;;;;;7.72;5.82;;;;;;;;;;5113910;28;20585;-81
2023/05/22 09:53:28;;;;;;;6.15;5.65;;;;;;;;;;5113839;28;20202;-81
2023/05/22 09:55:57;;;;;;;5.63;5.22;;;;;;;;;;5113738;28;20206;-81
2023/05/22 09:58:29;;;;;;;6.43;5.88;;;;;;;;;;5113564;28;20223;-81
2023/05/22 10:00:57;;;;;;;6.53;5.93;;;;;;;;;;5114023;28;20226;-82
2023/05/22 10:03:26;;;;;;;6.32;5.82;;;;;;;;;;5113896;28;20226;-82
2023/05/22 10:05:56;;;;;;;6.53;5.93;;;;;;;;;;5113636;28;20203;-82
2023/05/22 10:08:27;;;;;;;6.05;5.65;;;;;;;;;;5113486;28;20199;-81
2023/05/22 10:10:56;;;;;;;6.10;5.60;;;;;;;;;;5113501;28;20223;-82
2023/05/22 10:13:26;;;;;;;6.38;5.88;;;;;;;;;;5113732;28;20671;-83
2023/05/22 10:15:54;;;;;;;6.10;5.60;;;;;;;;;;5113119;28;20663;-83
2023/05/22 10:18:21;;;;;;;6.70;6.20;;;;;;;;;;5112767;28;20609;-82
2023/05/22 10:20:49;;;;;;;6.80;6.30;;;;;;;;;;5112981;28;20215;-82
2023/05/22 10:23:18;;;;;;;5.88;5.47;;;;;;;;;;5113246;28;20242;-82
2023/05/22 10:25:46;;;;;;;6.93;6.32;;;;;;;;;;5099257;28;20282;-82
2023/05/22 10:28:21;;;;;;;5.72;5.32;;;;;;;;;;5092033;28;20659;-82
2023/05/22 10:30:56;;;;;;;6.22;5.72;;;;;;;;;;5092782;28;20224;-81
2023/05/22 10:33:26;;;;;;;4.95;4.63;;;;;;;;;;5092310;28;20304;-81
2023/05/22 10:35:57;;;;;;;6.07;5.60;;;;;;;;;;5093004;28;20188;-82
2023/05/22 10:38:54;;;;;;;6.22;5.72;;;;;;;;;;5092866;28;20200;-84
2023/05/22 10:41:23;;;;;;;6.28;5.78;;;;;;;;;;5092706;28;20224;-81
2023/05/22 10:43:51;;;;;;;6.32;5.82;;;;;;;;;;5104597;28;20721;-82
2023/05/22 10:46:20;;;;;;;6.25;5.50;;;;;;;;;;5113285;28;20195;-82
2023/05/22 10:48:50;;;;;;;5.88;5.30;;;;;;;;;;5112570;28;20248;-82
2023/05/22 10:51:20;;;;;;;5.13;4.72;;;;;;;;;;5112636;28;20222;-82
2023/05/22 10:53:53;;;;;;;4.53;4.22;;;;;;;;;;5112809;28;20279;-82
2023/05/22 10:56:21;;;;;;;5.68;5.28;;;;;;;;;;5113049;28;20701;-82
2023/05/22 10:58:57;;;;;;;6.00;5.50;;;;;;;;;;5113119;28;20680;-82
2023/05/22 11:01:27;;;;;;;6.28;5.68;;;;;;;;;;5112981;28;20223;-82
2023/05/22 11:03:57;;;;;;;5.90;5.40;;;;;;;;;;5112915;28;20253;-81
2023/05/22 11:06:37;;;;;;;5.63;5.22;;;;;;;;;;5112748;28;20395;-83
2023/05/22 11:09:27;;;;;;;4.38;4.07;;;;;;;;;;5116813;28;20203;-82
2023/05/22 11:12:19;;;;;;;5.40;5.00;;;;;;;;;;5117059;28;20195;-83
2023/05/22 11:14:52;;;;;;;4.93;4.60;;;;;;;;;;5117302;28;20644;-82
2023/05/22 11:17:26;;;;;;;5.78;5.28;;;;;;;;;;5116582;28;20188;-83
2023/05/22 11:20:03;;;;;;;6.10;5.03;;;;;;;;;;5116729;28;20763;-84
2023/05/22 11:22:36;;;;;;;5.50;5.00;;;;;;;;;;5116924;28;20616;-83
2023/05/22 11:25:11;;;;;;;5.97;5.53;;;;;;;;;;5116675;28;20230;-82
2023/05/22 11:27:41;;;;;;;6.80;6.15;;;;;;;;;;5116489;28;20302;-82
2023/05/22 11:30:10;;;;;;;6.55;5.95;;;;;;;;;;5116709;28;20644;-82
2023/05/22 11:32:43;;;;;;;5.63;5.22;;;;;;;;;;5116554;28;20622;-83
2023/05/22 11:35:14;;;;;;;5.72;4.97;;;;;;;;;;5116168;28;20184;-82
2023/05/22 11:37:42;;;;;;;5.95;5.50;;;;;;;;;;5116056;28;20241;-82
2023/05/22 11:40:10;;;;;;;6.20;5.70;;;;;;;;;;5116349;28;20303;-83
2023/05/22 11:42:38;;;;;;;7.18;6.57;;;;;;;;;;5116419;28;20195;-83
2023/05/22 11:45:07;;;;;;;6.75;6.05;;;;;;;;;;5116092;28;20286;-82
2023/05/22 11:47:35;;;;;;;7.35;6.72;;;;;;;;;;5115505;28;20567;-83
2023/05/22 11:50:05;;;;;;;6.30;5.80;;;;;;;;;;5116227;28;20219;-82
2023/05/22 11:52:34;;;;;;;5.60;5.20;;;;;;;;;;5116627;28;20195;-83
2023/05/22 11:55:02;;;;;;;7.43;6.78;;;;;;;;;;5116178;28;20204;-82
2023/05/22 11:57:30;;;;;;;6.88;6.28;;;;;;;;;;5116298;28;20695;-82
2023/05/22 11:59:57;;;;;;;6.22;5.82;;;;;;;;;;5115849;28;20219;-82
2023/05/22 12:02:25;;;;;;;5.47;5.07;;;;;;;;;;5115886;28;20575;-82
2023/05/22 12:04:55;;;;;;;5.57;5.18;;;;;;;;;;5115693;28;20575;-83
2023/05/22 12:07:25;;;;;;;5.93;5.47;;;;;;;;;;5115317;28;20195;-83
2023/05/22 12:09:53;;;;;;;6.57;6.07;;;;;;;;;;5115706;28;20230;-82
2023/05/22 12:12:21;;;;;;;5.93;5.43;;;;;;;;;;5115430;28;20293;-82
2023/05/22 12:14:49;;;;;;;5.25;4.93;;;;;;;;;;5095406;28;20303;-83
2023/05/22 12:17:18;;;;;;;6.18;5.75;;;;;;;;;;5095186;28;20204;-83
2023/05/22 12:19:47;;;;;;;5.20;4.80;;;;;;;;;;5093803;28;20220;-83
2023/05/22 12:22:14;;;;;;;5.72;5.32;;;;;;;;;;5095232;28;20211;-82
2023/05/22 12:24:45;;;;;;;8.60;5.78;;;;;;;;;;5099096;28;20227;-82
2023/05/22 12:27:14;;;;;;;6.13;5.60;;;;;;;;;;5115172;28;20207;-82
2023/05/22 12:29:43;;;;;;;6.45;5.85;;;;;;;;;;5115291;28;20696;-82
2023/05/22 12:32:12;;;;;;;5.45;5.05;;;;;;;;;;5115360;28;20614;-82
2023/05/22 12:34:45;;;;;;;4.38;4.07;;;;;;;;;;5115196;28;20200;-83
2023/05/22 12:37:23;;;;;;;4.70;4.38;;;;;;;;;;5115211;28;20206;-82
2023/05/22 12:39:57;;;;;;;5.07;4.70;;;;;;;;;;5114920;28;20222;-82
2023/05/22 12:42:25;;;;;;;5.55;5.10;;;;;;;;;;5114845;28;20195;-82
2023/05/22 12:44:55;;;;;;;5.32;4.93;;;;;;;;;;5115274;28;20228;-82
2023/05/22 12:47:23;;;;;;;4.95;4.55;;;;;;;;;;5115263;28;20328;-82
2023/05/22 12:49:51;;;;;;;4.93;4.53;;;;;;;;;;5114344;28;20219;-83
2023/05/22 12:52:19;;;;;;;4.90;4.60;;;;;;;;;;5115008;28;20727;-82
2023/05/22 12:54:46;;;;;;;5.80;5.38;;;;;;;;;;5114078;28;20286;-83
2023/05/22 12:57:15;;;;;;;6.30;5.25;;;;;;;;;;5114316;28;20286;-82
2023/05/22 12:59:43;;;;;;;4.78;4.47;;;;;;;;;;5114503;28;20215;-82
2023/05/22 13:02:10;;;;;;;4.68;4.30;;;;;;;;;;5114705;28;20305;-82
2023/05/22 13:04:38;;;;;;;5.30;4.90;;;;;;;;;;5114438;28;20251;-82
2023/05/22 13:07:06;;;;;;;6.07;5.32;;;;;;;;;;5114226;28;20767;-81
2023/05/22 13:09:33;;;;;;;4.55;4.25;;;;;;;;;;5114325;28;20303;-83
2023/05/22 13:12:00;;;;;;;4.60;4.30;;;;;;;;;;5114121;28;20638;-83
2023/05/22 13:14:29;;;;;;;5.72;4.47;;;;;;;;;;5114067;28;20593;-82
2023/05/22 13:16:57;;;;;;;4.57;4.22;;;;;;;;;;5114144;28;20199;-82
2023/05/22 13:19:24;;;;;;;4.63;4.28;;;;;;;;;;5113665;28;20751;-83
2023/05/22 13:21:52;;;;;;;5.43;4.97;;;;;;;;;;5114163;28;20204;-82
2023/05/22 13:24:19;;;;;;;5.15;4.75;;;;;;;;;;5114010;28;20286;-83
2023/05/22 13:26:47;;;;;;;4.75;4.45;;;;;;;;;;5113350;28;20219;-83
2023/05/22 13:29:14;;;;;;;5.25;4.85;;;;;;;;;;5113412;28;20212;-83
2023/05/22 13:31:43;;;;;;;5.18;4.78;;;;;;;;;;5113918;28;20207;-81
2023/05/22 13:34:11;;;;;;;5.43;4.90;;;;;;;;;;5113643;28;20286;-82
2023/05/22 13:36:38;;;;;;;4.28;3.97;;;;;;;;;;5113794;28;20290;-83
2023/05/22 13:39:06;;;;;;;4.82;4.28;;;;;;;;;;5113587;28;20202;-82
2023/05/22 13:41:33;;;;;;;4.18;3.88;;;;;;;;;;5113787;28;20287;-82
2023/05/22 13:44:01;;;;;;;4.57;4.22;;;;;;;;;;5113406;28;20199;-81
2023/05/22 13:46:28;;;;;;;4.68;4.20;;;;;;;;;;5113444;28;20220;-81
2023/05/22 13:48:57;;;;;;;4.05;3.70;;;;;;;;;;5113574;28;20287;-84
2023/05/22 13:51:24;;;;;;;4.72;4.32;;;;;;;;;;5113539;28;20323;-81
2023/05/22 13:53:52;;;;;;;5.28;4.88;;;;;;;;;;5113771;28;20235;-83
2023/05/22 13:56:19;;;;;;;4.72;4.43;;;;;;;;;;5095225;28;20216;-82
2023/05/22 13:58:47;;;;;;;4.07;3.70;;;;;;;;;;5092521;28;20196;-82
2023/05/22 14:01:14;;;;;;;4.38;4.07;;;;;;;;;;5093277;28;20306;-82
2023/05/22 14:03:41;;;;;;;4.78;4.38;;;;;;;;;;5092782;28;20642;-82
2023/05/22 14:06:10;;;;;;;5.38;4.97;;;;;;;;;;5092680;28;20751;-83
2023/05/22 14:08:38;;;;;;;4.80;4.40;;;;;;;;;;5092713;28;20405;-82
2023/05/22 14:11:05;;;;;;;4.43;4.03;;;;;;;;;;5092893;28;20303;-85
2023/05/22 14:13:33;;;;;;;4.93;4.45;;;;;;;;;;5093572;28;20299;-84
2023/05/22 14:16:00;;;;;;;4.97;4.47;;;;;;;;;;5092995;28;20382;-84
2023/05/22 14:18:28;;;;;;;5.22;4.72;;;;;;;;;;5093482;28;20290;-85
2023/05/22 14:20:56;;;;;;;4.45;4.15;;;;;;;;;;5093112;28;20307;-84
2023/05/22 14:23:24;;;;;;;5.25;4.40;;;;;;;;;;5092884;28;20290;-84
2023/05/22 14:25:52;;;;;;;4.30;4.00;;;;;;;;;;5093547;28;20226;-85
2023/05/22 14:28:19;;;;;;;4.90;4.50;;;;;;;;;;5093670;28;20310;-84
2023/05/22 14:30:47;;;;;;;4.35;4.05;;;;;;;;;;5093248;28;20307;-85
2023/05/22 14:33:14;;;;;;;4.55;4.15;;;;;;;;;;5093014;28;20570;-84
2023/05/22 14:35:42;;;;;;;4.35;4.03;;;;;;;;;;5093204;28;20708;-84
2023/05/22 14:38:09;;;;;;;5.00;4.70;;;;;;;;;;5092546;28;20736;-84
2023/05/22 14:40:38;;;;;;;4.32;4.03;;;;;;;;;;5092785;28;20228;-86
2023/05/22 14:43:05;;;;;;;4.90;4.50;;;;;;;;;;5097620;28;20286;-84
2023/05/22 14:45:33;;;;;;;5.88;5.28;;;;;;;;;;5113937;28;20215;-84
2023/05/22 14:48:00;;;;;;;7.15;6.53;;;;;;;;;;5114560;28;20206;-84
2023/05/22 14:50:28;;;;;;;6.32;5.82;;;;;;;;;;5115638;28;20307;-83
2023/05/22 14:52:55;;;;;;;6.55;5.95;;;;;;;;;;5114343;28;20294;-85
2023/05/22 14:55:26;;;;;;;7.97;7.10;;;;;;;;;;5113247;28;20290;-83